Portada
METAR-TAF:

METAR-TAF

Aeroports :

Ha'il, Aràbia Saudita

latitud: 27-26N, longitud: 041-41E, altitud: 1015 m

Observació

L'informe es va fer fa 48 minuts, a les 06:00 UTC
Vent calma
Temperatura 28°C
Humitat 22%
Pressió 1018 hPa
Visibilitat 10 km o més
sense núvols per sota de 1500 mi sense presència de cumulonimbus.

METAR: OEHL 080600Z 00000KT CAVOK 28/04 Q1018

Hora: 09:48 (06:48 UTC)

Pronòstic

L'informe es va fer fa 7 hores i 48 minuts, a les 23:00 UTC
Pronòstic vàlid del 08 a les 00 UTC al 09 a les 06 UTC
Vent 8 kt del Nord/Nord-Oest
Visibilitat: 7000 m
Escasses núvols a una alçada de 4000 ft
Evolucionant progressivament
l' 08 a les 06 UTC al 08 a les 08 UTC
Vent 16 kt del Est/Nord-Est
Evolucionant progressivament
l' 08 a les 18 UTC al 08 a les 20 UTC
Vent 3 kt amb direcció variable

TAF: OEHL 072300Z 0800/0906 33008KT 7000 FEW040 BECMG 0806/0808 06016KT BECMG 0818/0820 VRB03KT

Observacions i pronòstics meteorològics de més de 4000 aeroports (METAR i TAF).

Les estacions disponibles són els punts grocs i vermells al mapa.

Posi el ratolí al punt desitjat per veure el nom de l'estació.

Feu clic per veure les observacions i els pronòstics meteorològics.

Per canviar el mapa: feu clic els botons verds amb una creu de color negre per apropar; al botó verd amb un guió per allunyar la imatge; o en les fletxes verdes per a mapes adjacents.


METAR-TAF: